createdAt,value
2018-08-19T00:02:11.385Z,15.70
2018-08-19T00:04:39.518Z,15.70
2018-08-19T00:07:07.707Z,15.70
2018-08-19T00:09:35.885Z,15.60
2018-08-19T00:12:04.182Z,15.70
2018-08-19T00:14:33.897Z,15.70
2018-08-19T00:17:02.720Z,15.60
2018-08-19T00:19:32.057Z,15.60
2018-08-19T00:22:00.313Z,15.60
2018-08-19T00:24:28.345Z,15.50
2018-08-19T00:26:56.366Z,15.50
2018-08-19T00:29:32.702Z,15.50
2018-08-19T00:32:01.274Z,15.50
2018-08-19T00:34:33.282Z,15.40
2018-08-19T00:37:02.771Z,15.40
2018-08-19T00:39:30.927Z,15.30
2018-08-19T00:42:00.744Z,15.30
2018-08-19T00:44:29.460Z,15.20
2018-08-19T00:46:57.530Z,15.10
2018-08-19T00:49:25.568Z,15.20
2018-08-19T00:51:58.308Z,15.30
2018-08-19T00:54:26.945Z,15.30
2018-08-19T00:56:56.929Z,15.30
2018-08-19T00:59:26.073Z,15.30
2018-08-19T01:01:54.103Z,15.30
2018-08-19T01:04:22.218Z,15.30
2018-08-19T01:06:54.284Z,15.30
2018-08-19T01:09:27.109Z,15.10
2018-08-19T01:11:55.111Z,15.10
2018-08-19T01:14:23.121Z,15.10
2018-08-19T01:16:51.157Z,15.30
2018-08-19T01:19:19.423Z,15.30
2018-08-19T01:21:48.328Z,15.30
2018-08-19T01:24:16.515Z,15.30
2018-08-19T01:26:44.566Z,15.20
2018-08-19T01:29:12.922Z,15.10
2018-08-19T01:31:40.915Z,14.90
2018-08-19T01:34:11.190Z,14.90
2018-08-19T01:36:39.257Z,14.90
2018-08-19T01:39:09.158Z,15.00
2018-08-19T01:41:38.317Z,14.90
2018-08-19T01:44:08.973Z,14.70
2018-08-19T01:46:38.300Z,14.80
2018-08-19T01:49:08.368Z,14.80
2018-08-19T01:51:38.336Z,14.80
2018-08-19T01:54:12.054Z,14.80
2018-08-19T01:56:40.346Z,14.70
2018-08-19T01:59:08.349Z,14.70
2018-08-19T02:01:47.610Z,14.70
2018-08-19T02:04:15.802Z,14.70
2018-08-19T02:06:44.562Z,14.70
2018-08-19T02:09:14.967Z,14.70
2018-08-19T02:11:47.273Z,14.70
2018-08-19T02:14:16.317Z,14.70
2018-08-19T02:16:44.479Z,14.70
2018-08-19T02:19:12.961Z,14.90
2018-08-19T02:21:41.767Z,15.10
2018-08-19T02:24:10.259Z,15.20
2018-08-19T02:26:38.290Z,15.20
2018-08-19T02:29:23.421Z,15.20
2018-08-19T02:31:51.623Z,15.10
2018-08-19T02:34:24.342Z,15.20
2018-08-19T02:36:52.401Z,15.20
2018-08-19T02:39:20.478Z,15.10
2018-08-19T02:41:50.609Z,15.00
2018-08-19T02:44:18.630Z,15.10
2018-08-19T02:46:46.784Z,15.00
2018-08-19T02:49:14.808Z,14.80
2018-08-19T02:51:42.813Z,14.70
2018-08-19T02:54:10.818Z,14.60
2018-08-19T02:56:38.976Z,14.50
2018-08-19T02:59:06.974Z,14.50
2018-08-19T03:01:35.060Z,14.40
2018-08-19T03:04:03.084Z,14.40
2018-08-19T03:06:31.251Z,14.40
2018-08-19T03:09:00.050Z,14.40
2018-08-19T03:11:28.454Z,14.50
2018-08-19T03:13:56.865Z,14.50
2018-08-19T03:16:24.917Z,14.40
2018-08-19T03:18:53.409Z,14.40
2018-08-19T03:21:22.242Z,14.40
2018-08-19T03:23:51.836Z,14.30
2018-08-19T03:26:19.897Z,14.30
2018-08-19T03:28:48.108Z,14.30
2018-08-19T03:31:16.114Z,14.30
2018-08-19T03:33:44.177Z,14.30
2018-08-19T03:36:12.185Z,14.30
2018-08-19T03:38:40.221Z,14.20
2018-08-19T03:41:08.321Z,14.20
2018-08-19T03:43:36.405Z,14.20
2018-08-19T03:46:12.745Z,14.20
2018-08-19T03:48:40.846Z,14.20
2018-08-19T03:51:09.612Z,14.30
2018-08-19T03:53:37.644Z,14.20
2018-08-19T03:56:06.185Z,14.20
2018-08-19T03:58:34.226Z,14.20
2018-08-19T04:01:02.257Z,14.10
2018-08-19T04:03:30.353Z,14.10
2018-08-19T04:05:59.612Z,14.30
2018-08-19T04:08:33.745Z,14.60
2018-08-19T04:11:04.838Z,14.70
2018-08-19T04:13:36.802Z,14.60
2018-08-19T04:16:06.854Z,14.50
2018-08-19T04:18:40.389Z,14.40
2018-08-19T04:21:10.473Z,14.40
2018-08-19T04:23:41.480Z,14.30
2018-08-19T04:26:09.685Z,14.30
2018-08-19T04:28:38.989Z,14.30
2018-08-19T04:31:13.365Z,14.40
2018-08-19T04:33:42.229Z,14.50
2018-08-19T04:36:12.159Z,14.50
2018-08-19T04:38:40.550Z,14.50
2018-08-19T04:41:08.541Z,14.60
2018-08-19T04:43:37.021Z,14.70
2018-08-19T04:46:05.105Z,14.80
2018-08-19T04:48:33.108Z,14.90
2018-08-19T04:51:01.147Z,15.00
2018-08-19T04:53:31.210Z,14.90
2018-08-19T04:55:59.274Z,14.90
2018-08-19T04:58:27.305Z,15.00
2018-08-19T05:00:55.313Z,15.10
2018-08-19T05:03:30.025Z,15.30
2018-08-19T05:05:58.584Z,15.60
2018-08-19T05:08:26.736Z,15.70
2018-08-19T05:10:54.709Z,15.80
2018-08-19T05:13:22.842Z,15.90
2018-08-19T05:15:50.918Z,16.10
2018-08-19T05:18:18.958Z,16.20
2018-08-19T05:20:46.993Z,16.40
2018-08-19T05:23:15.082Z,16.60
2018-08-19T05:25:48.665Z,16.80
2018-08-19T05:28:17.475Z,17.10
2018-08-19T05:30:46.197Z,17.20
2018-08-19T05:33:14.379Z,17.40
2018-08-19T05:35:42.375Z,17.60
2018-08-19T05:38:10.526Z,17.70
2018-08-19T05:40:40.843Z,17.90
2018-08-19T05:43:08.946Z,18.00
2018-08-19T05:45:41.241Z,18.20
2018-08-19T05:48:10.818Z,18.50
2018-08-19T05:50:38.834Z,18.70
2018-08-19T05:53:06.838Z,19.00
2018-08-19T05:55:34.932Z,19.20
2018-08-19T05:58:02.902Z,19.30
2018-08-19T06:00:31.498Z,19.60
2018-08-19T06:03:00.837Z,19.90
2018-08-19T06:05:29.337Z,20.00
2018-08-19T06:08:01.978Z,20.10
2018-08-19T06:10:30.178Z,20.30
2018-08-19T06:12:58.870Z,20.30
2018-08-19T06:15:28.497Z,20.20
2018-08-19T06:17:56.537Z,20.40
2018-08-19T06:20:26.629Z,20.60
2018-08-19T06:22:54.722Z,20.90
2018-08-19T06:25:22.771Z,21.20
2018-08-19T06:27:52.197Z,21.40
2018-08-19T06:30:20.490Z,21.40
2018-08-19T06:32:48.542Z,21.70
2018-08-19T06:35:16.578Z,21.70
2018-08-19T06:37:44.635Z,21.80
2018-08-19T06:40:15.578Z,21.90
2018-08-19T06:42:43.677Z,22.20
2018-08-19T06:45:12.509Z,22.40
2018-08-19T06:47:40.555Z,22.70
2018-08-19T06:50:20.574Z,22.90
2018-08-19T06:52:48.580Z,22.90
2018-08-19T06:55:17.135Z,23.20
2018-08-19T06:57:45.406Z,23.40
2018-08-19T07:00:18.835Z,23.50
2018-08-19T07:02:47.804Z,23.60
2018-08-19T07:05:15.818Z,23.70
2018-08-19T07:07:43.863Z,23.80
2018-08-19T07:10:11.854Z,23.80
2018-08-19T07:12:39.955Z,24.00
2018-08-19T07:15:07.930Z,24.20
2018-08-19T07:17:36.006Z,24.40
2018-08-19T07:20:04.511Z,24.50
2018-08-19T07:22:32.490Z,24.50
2018-08-19T07:25:00.793Z,24.60
2018-08-19T07:27:28.856Z,24.70
2018-08-19T07:29:56.890Z,24.90
2018-08-19T07:32:24.926Z,25.10
2018-08-19T07:34:53.189Z,25.20
2018-08-19T07:37:21.203Z,25.30
2018-08-19T07:39:53.502Z,25.30
2018-08-19T07:42:21.773Z,25.50
2018-08-19T07:44:50.082Z,25.60
2018-08-19T07:47:18.450Z,25.50
2018-08-19T07:49:46.637Z,25.10
2018-08-19T07:52:14.641Z,25.10
2018-08-19T07:54:42.718Z,25.30
2018-08-19T07:57:18.015Z,25.30
2018-08-19T07:59:47.370Z,25.70
2018-08-19T08:02:15.365Z,25.90
2018-08-19T08:04:44.668Z,26.10
2018-08-19T08:07:13.975Z,26.20
2018-08-19T08:09:42.434Z,26.20
2018-08-19T08:12:12.013Z,26.60
2018-08-19T08:14:44.297Z,26.50
2018-08-19T08:17:12.318Z,26.40
2018-08-19T08:19:46.710Z,26.50
2018-08-19T08:22:16.243Z,26.60
2018-08-19T08:24:44.602Z,26.70
2018-08-19T08:27:12.779Z,26.90
2018-08-19T08:29:40.861Z,27.20
2018-08-19T08:32:08.874Z,27.40
2018-08-19T08:34:37.237Z,27.60
2018-08-19T08:37:06.354Z,27.60
2018-08-19T08:39:35.434Z,27.50
2018-08-19T08:42:03.542Z,27.40
2018-08-19T08:44:31.761Z,27.40
2018-08-19T08:47:01.671Z,27.50
2018-08-19T08:49:35.585Z,27.60
2018-08-19T08:52:08.198Z,27.60
2018-08-19T08:54:36.228Z,27.20
2018-08-19T08:57:04.333Z,27.40
2018-08-19T08:59:32.430Z,27.30
2018-08-19T09:02:00.501Z,27.10
2018-08-19T09:04:28.589Z,27.10
2018-08-19T09:06:56.674Z,27.40
2018-08-19T09:09:24.709Z,27.40
2018-08-19T09:11:52.794Z,27.70
2018-08-19T09:14:20.909Z,27.90
2018-08-19T09:16:49.398Z,27.70
2018-08-19T09:19:17.456Z,27.80
2018-08-19T09:21:45.594Z,27.90
2018-08-19T09:24:13.773Z,27.70
2018-08-19T09:26:41.903Z,27.60
2018-08-19T09:29:09.955Z,27.80
2018-08-19T09:31:37.942Z,27.60
2018-08-19T09:34:08.141Z,27.80
2018-08-19T09:36:36.244Z,28.00
2018-08-19T09:39:07.914Z,28.10
2018-08-19T09:41:35.962Z,27.70
2018-08-19T09:44:04.295Z,27.70
2018-08-19T09:46:32.389Z,28.10
2018-08-19T09:49:00.386Z,28.40
2018-08-19T09:51:28.432Z,28.50
2018-08-19T09:53:56.526Z,28.50
2018-08-19T09:56:28.972Z,28.70
2018-08-19T09:59:03.237Z,28.80
2018-08-19T10:01:36.866Z,28.90
2018-08-19T10:04:10.458Z,28.60
2018-08-19T10:06:38.531Z,28.30
2018-08-19T10:09:07.385Z,28.20
2018-08-19T10:11:35.486Z,28.10
2018-08-19T10:14:04.236Z,28.30
2018-08-19T10:16:39.796Z,28.40
2018-08-19T10:19:08.293Z,28.40
2018-08-19T10:21:36.303Z,28.20
2018-08-19T10:24:16.038Z,28.30
2018-08-19T10:26:44.734Z,28.40
2018-08-19T10:29:13.117Z,28.30
2018-08-19T10:31:41.211Z,28.50
2018-08-19T10:34:09.429Z,28.20
2018-08-19T10:36:37.606Z,28.20
2018-08-19T10:39:11.473Z,28.20
2018-08-19T10:41:39.702Z,28.10
2018-08-19T10:44:07.753Z,28.50
2018-08-19T10:46:36.711Z,28.30
2018-08-19T10:49:04.758Z,28.50
2018-08-19T10:51:32.847Z,28.60
2018-08-19T10:54:00.894Z,29.00
2018-08-19T10:56:28.913Z,29.20
2018-08-19T10:58:58.977Z,29.30
2018-08-19T11:01:27.221Z,29.60
2018-08-19T11:03:55.617Z,29.60
2018-08-19T11:06:23.760Z,29.60
2018-08-19T11:08:56.030Z,29.70
2018-08-19T11:11:24.754Z,30.00
2018-08-19T11:13:54.201Z,30.10
2018-08-19T11:16:22.202Z,30.10
2018-08-19T11:18:50.473Z,30.10
2018-08-19T11:21:24.475Z,30.20
2018-08-19T11:23:52.517Z,30.20
2018-08-19T11:26:20.576Z,30.30
2018-08-19T11:28:53.081Z,30.10
2018-08-19T11:31:26.914Z,30.10
2018-08-19T11:33:56.372Z,30.20
2018-08-19T11:36:30.608Z,30.00
2018-08-19T11:38:58.685Z,29.90
2018-08-19T11:41:33.790Z,30.20
2018-08-19T11:44:05.495Z,30.40
2018-08-19T11:46:33.809Z,30.30
2018-08-19T11:49:07.257Z,30.30
2018-08-19T11:51:44.864Z,30.40
2018-08-19T11:54:14.145Z,30.60
2018-08-19T11:56:46.362Z,30.30
2018-08-19T11:59:14.353Z,30.00
2018-08-19T12:01:42.366Z,29.60
2018-08-19T12:04:11.622Z,29.40
2018-08-19T12:06:39.998Z,29.40
2018-08-19T12:09:09.369Z,29.60
2018-08-19T12:11:38.720Z,29.70
2018-08-19T12:14:10.733Z,29.90
2018-08-19T12:16:45.314Z,30.00
2018-08-19T12:19:23.691Z,29.80
2018-08-19T12:22:07.109Z,29.90
2018-08-19T12:24:44.001Z,29.90
2018-08-19T12:27:14.222Z,30.00
2018-08-19T12:29:43.130Z,30.10
2018-08-19T12:32:21.386Z,30.10
2018-08-19T12:34:58.263Z,30.20
2018-08-19T12:37:27.581Z,30.30
2018-08-19T12:39:56.185Z,30.10
2018-08-19T12:42:24.474Z,29.80
2018-08-19T12:44:59.068Z,30.10
2018-08-19T12:47:27.710Z,30.00
2018-08-19T12:49:58.058Z,30.20
2018-08-19T12:52:30.238Z,30.10
2018-08-19T12:55:03.092Z,30.20
2018-08-19T12:57:32.308Z,30.10
2018-08-19T13:00:11.449Z,30.00
2018-08-19T13:02:42.790Z,30.00
2018-08-19T13:05:10.885Z,30.10
2018-08-19T13:07:38.980Z,29.70
2018-08-19T13:10:07.305Z,29.40
2018-08-19T13:12:43.296Z,29.40
2018-08-19T13:15:11.320Z,29.60
2018-08-19T13:17:39.407Z,29.70
2018-08-19T13:20:08.347Z,29.80
2018-08-19T13:22:56.613Z,29.30
2018-08-19T13:25:24.992Z,29.20
2018-08-19T13:27:52.990Z,29.30
2018-08-19T13:30:21.437Z,29.50
2018-08-19T13:32:50.266Z,29.80
2018-08-19T13:35:18.713Z,30.00
2018-08-19T13:37:46.801Z,29.60
2018-08-19T13:40:15.367Z,29.60
2018-08-19T13:42:43.453Z,29.80
2018-08-19T13:45:14.650Z,29.90
2018-08-19T13:47:44.106Z,30.00
2018-08-19T13:50:12.459Z,29.80
2018-08-19T13:52:40.987Z,30.00
2018-08-19T13:55:10.401Z,30.10
2018-08-19T13:57:38.423Z,30.20
2018-08-19T14:00:10.207Z,30.20
2018-08-19T14:02:38.313Z,30.20
2018-08-19T14:05:06.324Z,30.20
2018-08-19T14:07:34.681Z,30.30
2018-08-19T14:10:02.749Z,30.40
2018-08-19T14:12:30.769Z,30.60
2018-08-19T14:14:58.842Z,30.50
2018-08-19T14:17:26.914Z,30.50
2018-08-19T14:19:55.006Z,30.60
2018-08-19T14:22:23.102Z,30.70
2018-08-19T14:24:51.094Z,30.50
2018-08-19T14:27:19.154Z,30.40
2018-08-19T14:29:47.190Z,30.60
2018-08-19T14:32:29.075Z,30.60
2018-08-19T14:34:58.394Z,30.50
2018-08-19T14:37:26.841Z,30.40
2018-08-19T14:39:54.978Z,30.00
2018-08-19T14:42:23.226Z,29.80
2018-08-19T14:44:51.322Z,30.00
2018-08-19T14:47:19.321Z,30.20
2018-08-19T14:49:47.317Z,30.30
2018-08-19T14:52:15.353Z,30.40
2018-08-19T14:54:43.358Z,30.30
2018-08-19T14:57:11.666Z,30.40
2018-08-19T14:59:39.655Z,30.50
2018-08-19T15:02:08.518Z,30.70
2018-08-19T15:04:36.548Z,31.00
2018-08-19T15:07:04.633Z,31.40
2018-08-19T15:09:34.405Z,31.60
2018-08-19T15:12:14.044Z,31.60
2018-08-19T15:14:42.388Z,31.20
2018-08-19T15:17:11.042Z,31.00
2018-08-19T15:19:41.303Z,30.80
2018-08-19T15:22:09.477Z,31.00
2018-08-19T15:24:37.493Z,31.20
2018-08-19T15:27:05.546Z,31.70
2018-08-19T15:29:33.713Z,32.20
2018-08-19T15:32:03.179Z,33.10
2018-08-19T15:34:31.102Z,33.50
2018-08-19T15:36:59.139Z,35.20
2018-08-19T15:39:27.186Z,36.00
2018-08-19T15:41:55.358Z,35.50
2018-08-19T15:44:23.457Z,36.10
2018-08-19T15:46:51.498Z,37.50
2018-08-19T15:49:21.341Z,38.40
2018-08-19T15:51:50.067Z,38.90
2018-08-19T15:54:18.158Z,38.70
2018-08-19T15:56:46.174Z,38.40
2018-08-19T15:59:14.174Z,37.40
2018-08-19T16:01:42.501Z,37.30
2018-08-19T16:04:17.658Z,38.00
2018-08-19T16:06:48.017Z,38.50
2018-08-19T16:09:17.918Z,39.10
2018-08-19T16:11:46.521Z,39.70
2018-08-19T16:14:20.961Z,40.10
2018-08-19T16:16:48.993Z,40.20
2018-08-19T16:19:17.026Z,40.50
2018-08-19T16:21:46.017Z,40.00
2018-08-19T16:24:14.114Z,40.10
2018-08-19T16:26:42.394Z,40.00
2018-08-19T16:29:10.482Z,40.40
2018-08-19T16:31:38.555Z,40.80
2018-08-19T16:34:06.858Z,41.20
2018-08-19T16:36:34.939Z,41.20
2018-08-19T16:39:03.034Z,40.00
2018-08-19T16:41:31.119Z,37.90
2018-08-19T16:43:59.282Z,36.50
2018-08-19T16:46:27.282Z,36.20
2018-08-19T16:48:55.314Z,36.80
2018-08-19T16:51:23.347Z,37.40
2018-08-19T16:53:51.429Z,38.20
2018-08-19T16:56:19.449Z,38.90
2018-08-19T16:58:47.495Z,39.00
2018-08-19T17:01:15.578Z,38.50
2018-08-19T17:03:43.623Z,37.40
2018-08-19T17:06:13.002Z,36.10
2018-08-19T17:08:41.563Z,34.70
2018-08-19T17:11:11.451Z,33.70
2018-08-19T17:13:39.678Z,32.80
2018-08-19T17:16:08.040Z,32.00
2018-08-19T17:18:36.191Z,31.30
2018-08-19T17:21:04.478Z,30.80
2018-08-19T17:23:32.829Z,30.30
2018-08-19T17:26:13.945Z,30.00
2018-08-19T17:28:42.006Z,29.70
2018-08-19T17:31:10.009Z,29.40
2018-08-19T17:33:38.081Z,29.20
2018-08-19T17:36:06.161Z,28.90
2018-08-19T17:38:35.370Z,28.70
2018-08-19T17:41:03.966Z,28.50
2018-08-19T17:43:36.662Z,28.20
2018-08-19T17:46:05.559Z,28.10
2018-08-19T17:48:33.878Z,27.80
2018-08-19T17:51:01.906Z,27.60
2018-08-19T17:53:30.169Z,27.30
2018-08-19T17:55:58.186Z,27.20
2018-08-19T17:58:26.293Z,26.90
2018-08-19T18:00:54.339Z,26.70
2018-08-19T18:03:22.342Z,26.40
2018-08-19T18:05:50.381Z,26.20
2018-08-19T18:08:18.413Z,25.90
2018-08-19T18:10:51.744Z,25.80
2018-08-19T18:13:19.770Z,25.70
2018-08-19T18:15:47.778Z,25.50
2018-08-19T18:18:15.997Z,25.30
2018-08-19T18:20:44.170Z,25.10
2018-08-19T18:23:17.782Z,25.00
2018-08-19T18:25:48.632Z,24.80
2018-08-19T18:28:20.768Z,24.60
2018-08-19T18:30:51.959Z,24.50
2018-08-19T18:33:19.957Z,24.30
2018-08-19T18:35:48.042Z,24.20
2018-08-19T18:38:25.440Z,24.10
2018-08-19T18:40:53.625Z,24.00
2018-08-19T18:43:21.664Z,23.80
2018-08-19T18:45:49.689Z,23.70
2018-08-19T18:48:19.273Z,23.60
2018-08-19T18:50:47.278Z,23.50
2018-08-19T18:53:15.414Z,23.40
2018-08-19T18:55:43.462Z,23.40
2018-08-19T18:58:11.478Z,23.30
2018-08-19T19:00:46.299Z,23.30
2018-08-19T19:03:14.330Z,23.20
2018-08-19T19:05:43.536Z,23.10
2018-08-19T19:08:12.672Z,23.00
2018-08-19T19:10:49.486Z,23.00
2018-08-19T19:13:20.374Z,22.90
2018-08-19T19:15:49.030Z,23.00
2018-08-19T19:18:17.645Z,22.90
2018-08-19T19:20:51.139Z,23.00
2018-08-19T19:23:20.919Z,23.00
2018-08-19T19:25:49.496Z,22.80
2018-08-19T19:28:17.837Z,22.70
2018-08-19T19:30:45.906Z,22.60
2018-08-19T19:33:14.105Z,22.70
2018-08-19T19:35:42.365Z,22.70
2018-08-19T19:38:10.671Z,22.60
2018-08-19T19:40:39.017Z,22.40
2018-08-19T19:43:07.127Z,22.40
2018-08-19T19:45:42.457Z,22.40
2018-08-19T19:48:11.394Z,22.20
2018-08-19T19:50:39.557Z,22.10
2018-08-19T19:53:07.717Z,22.00
2018-08-19T19:55:35.745Z,21.90
2018-08-19T19:58:03.802Z,21.80
2018-08-19T20:00:47.768Z,21.60
2018-08-19T20:03:15.913Z,21.70
2018-08-19T20:05:43.970Z,21.80
2018-08-19T20:08:12.017Z,21.70
2018-08-19T20:10:40.092Z,21.80
2018-08-19T20:13:08.161Z,21.80
2018-08-19T20:15:36.233Z,21.50
2018-08-19T20:18:05.473Z,21.30
2018-08-19T20:20:33.642Z,21.20
2018-08-19T20:23:05.186Z,21.00
2018-08-19T20:25:33.281Z,21.00
2018-08-19T20:28:06.802Z,21.00
2018-08-19T20:30:34.886Z,21.00
2018-08-19T20:33:02.981Z,21.00
2018-08-19T20:35:31.350Z,21.00
2018-08-19T20:37:59.550Z,21.20
2018-08-19T20:40:27.595Z,21.20
2018-08-19T20:42:55.657Z,21.30
2018-08-19T20:45:23.766Z,21.10
2018-08-19T20:47:51.908Z,20.90
2018-08-19T20:50:19.937Z,20.70
2018-08-19T20:52:48.961Z,20.60
2018-08-19T20:55:17.251Z,20.40
2018-08-19T20:57:45.747Z,20.30
2018-08-19T21:00:13.936Z,20.20
2018-08-19T21:02:42.031Z,20.10
2018-08-19T21:05:10.409Z,20.00
2018-08-19T21:07:38.429Z,19.90
2018-08-19T21:10:06.744Z,19.90
2018-08-19T21:12:34.823Z,19.80
2018-08-19T21:15:02.885Z,19.80
2018-08-19T21:17:31.657Z,19.70
2018-08-19T21:19:59.874Z,19.70
2018-08-19T21:22:27.989Z,19.60
2018-08-19T21:24:56.083Z,19.60
2018-08-19T21:27:24.293Z,19.50
2018-08-19T21:29:52.401Z,19.50
2018-08-19T21:32:20.467Z,19.40
2018-08-19T21:34:48.488Z,19.30
2018-08-19T21:37:16.670Z,19.50
2018-08-19T21:39:44.809Z,19.50
2018-08-19T21:42:12.853Z,19.50
2018-08-19T21:44:40.861Z,19.40
2018-08-19T21:47:10.575Z,19.30
2018-08-19T21:49:38.802Z,19.30
2018-08-19T21:52:06.862Z,19.20
2018-08-19T21:54:34.959Z,19.10
2018-08-19T21:57:02.957Z,19.00
2018-08-19T21:59:30.996Z,18.90
2018-08-19T22:02:00.237Z,18.90
2018-08-19T22:04:28.886Z,19.00
2018-08-19T22:06:57.029Z,19.00
2018-08-19T22:09:32.069Z,19.00
2018-08-19T22:12:00.767Z,19.00
2018-08-19T22:14:29.298Z,18.90
2018-08-19T22:17:02.782Z,18.80
2018-08-19T22:19:31.474Z,18.70
2018-08-19T22:21:59.553Z,18.70
2018-08-19T22:24:27.580Z,18.50
2018-08-19T22:26:58.449Z,18.50
2018-08-19T22:29:26.459Z,18.40
2018-08-19T22:31:54.468Z,18.40
2018-08-19T22:34:22.496Z,18.40
2018-08-19T22:36:50.531Z,18.30
2018-08-19T22:39:19.643Z,18.30
2018-08-19T22:41:49.684Z,18.20
2018-08-19T22:44:17.850Z,18.20
2018-08-19T22:46:46.029Z,18.20
2018-08-19T22:49:14.025Z,18.20
2018-08-19T22:51:42.102Z,18.30
2018-08-19T22:54:10.127Z,18.40
2018-08-19T22:56:38.256Z,18.30
2018-08-19T22:59:06.305Z,18.10
2018-08-19T23:01:40.058Z,18.00
2018-08-19T23:04:08.142Z,18.00
2018-08-19T23:06:36.178Z,17.90
2018-08-19T23:09:05.806Z,17.90
2018-08-19T23:11:39.306Z,17.90
2018-08-19T23:14:18.897Z,17.80
2018-08-19T23:16:46.958Z,17.80
2018-08-19T23:19:14.954Z,17.70
2018-08-19T23:21:43.047Z,17.60
2018-08-19T23:24:11.095Z,17.60
2018-08-19T23:26:39.118Z,17.60
2018-08-19T23:29:07.327Z,17.60
2018-08-19T23:31:35.374Z,17.60
2018-08-19T23:34:03.369Z,17.60
2018-08-19T23:36:31.417Z,17.50
2018-08-19T23:38:59.452Z,17.50
2018-08-19T23:41:27.506Z,17.40
2018-08-19T23:43:55.547Z,17.30
2018-08-19T23:46:23.530Z,17.30
2018-08-19T23:48:51.713Z,17.30
2018-08-19T23:51:25.300Z,17.40
2018-08-19T23:53:53.330Z,17.40
2018-08-19T23:56:21.337Z,17.30
2018-08-19T23:58:49.373Z,17.30
